sensor_id;sensor_type;location;lat;lon;timestamp;P1;durP1;ratioP1;P2;durP2;ratioP2
18425;SDS011;9340;48.756;9.226;2023-08-06T00:00:12;7.03;;;6.50;;
18425;SDS011;9340;48.756;9.226;2023-08-06T00:02:39;7.90;;;7.25;;
18425;SDS011;9340;48.756;9.226;2023-08-06T00:05:07;7.37;;;6.80;;
18425;SDS011;9340;48.756;9.226;2023-08-06T00:07:34;10.30;;;8.77;;
18425;SDS011;9340;48.756;9.226;2023-08-06T00:10:01;9.33;;;8.37;;
18425;SDS011;9340;48.756;9.226;2023-08-06T00:12:27;8.57;;;7.93;;
18425;SDS011;9340;48.756;9.226;2023-08-06T00:14:54;9.90;;;9.00;;
18425;SDS011;9340;48.756;9.226;2023-08-06T00:17:21;9.37;;;8.57;;
18425;SDS011;9340;48.756;9.226;2023-08-06T00:19:47;8.10;;;7.50;;
18425;SDS011;9340;48.756;9.226;2023-08-06T00:22:15;9.53;;;8.73;;
18425;SDS011;9340;48.756;9.226;2023-08-06T00:24:42;8.40;;;7.80;;
18425;SDS011;9340;48.756;9.226;2023-08-06T00:27:08;9.20;;;8.40;;
18425;SDS011;9340;48.756;9.226;2023-08-06T00:29:35;10.03;;;9.13;;
18425;SDS011;9340;48.756;9.226;2023-08-06T00:32:02;8.43;;;7.73;;
18425;SDS011;9340;48.756;9.226;2023-08-06T00:34:29;10.17;;;9.37;;
18425;SDS011;9340;48.756;9.226;2023-08-06T00:36:56;12.07;;;11.17;;
18425;SDS011;9340;48.756;9.226;2023-08-06T00:39:24;12.10;;;11.13;;
18425;SDS011;9340;48.756;9.226;2023-08-06T00:41:50;14.17;;;12.97;;
18425;SDS011;9340;48.756;9.226;2023-08-06T00:44:17;12.90;;;11.63;;
18425;SDS011;9340;48.756;9.226;2023-08-06T00:46:43;12.07;;;11.07;;
18425;SDS011;9340;48.756;9.226;2023-08-06T00:49:10;12.23;;;10.93;;
18425;SDS011;9340;48.756;9.226;2023-08-06T00:51:37;9.17;;;8.43;;
18425;SDS011;9340;48.756;9.226;2023-08-06T00:54:04;9.33;;;8.53;;
18425;SDS011;9340;48.756;9.226;2023-08-06T00:56:32;9.77;;;8.93;;
18425;SDS011;9340;48.756;9.226;2023-08-06T00:59:00;9.63;;;8.67;;
18425;SDS011;9340;48.756;9.226;2023-08-06T01:01:27;7.67;;;7.03;;
18425;SDS011;9340;48.756;9.226;2023-08-06T01:03:54;8.93;;;8.13;;
18425;SDS011;9340;48.756;9.226;2023-08-06T01:06:23;9.07;;;8.27;;
18425;SDS011;9340;48.756;9.226;2023-08-06T01:09:01;8.63;;;7.83;;
18425;SDS011;9340;48.756;9.226;2023-08-06T01:11:37;7.90;;;7.17;;
18425;SDS011;9340;48.756;9.226;2023-08-06T01:14:12;8.23;;;7.47;;
18425;SDS011;9340;48.756;9.226;2023-08-06T01:16:47;7.70;;;6.87;;
18425;SDS011;9340;48.756;9.226;2023-08-06T01:19:18;7.63;;;7.03;;
18425;SDS011;9340;48.756;9.226;2023-08-06T01:21:47;9.23;;;6.57;;
18425;SDS011;9340;48.756;9.226;2023-08-06T01:24:13;6.43;;;5.93;;
18425;SDS011;9340;48.756;9.226;2023-08-06T01:26:42;7.07;;;6.47;;
18425;SDS011;9340;48.756;9.226;2023-08-06T01:29:12;6.83;;;6.27;;
18425;SDS011;9340;48.756;9.226;2023-08-06T01:31:45;7.53;;;6.87;;
18425;SDS011;9340;48.756;9.226;2023-08-06T01:34:17;7.13;;;6.53;;
18425;SDS011;9340;48.756;9.226;2023-08-06T01:36:48;7.33;;;6.63;;
18425;SDS011;9340;48.756;9.226;2023-08-06T01:39:14;5.80;;;5.30;;
18425;SDS011;9340;48.756;9.226;2023-08-06T01:41:41;7.03;;;6.33;;
18425;SDS011;9340;48.756;9.226;2023-08-06T01:44:08;6.03;;;5.47;;
18425;SDS011;9340;48.756;9.226;2023-08-06T01:46:35;5.97;;;5.37;;
18425;SDS011;9340;48.756;9.226;2023-08-06T01:49:01;5.93;;;5.33;;
18425;SDS011;9340;48.756;9.226;2023-08-06T01:51:28;5.80;;;5.30;;
18425;SDS011;9340;48.756;9.226;2023-08-06T01:53:56;6.30;;;5.80;;
18425;SDS011;9340;48.756;9.226;2023-08-06T01:56:22;5.20;;;4.40;;
18425;SDS011;9340;48.756;9.226;2023-08-06T01:58:49;7.17;;;5.23;;
18425;SDS011;9340;48.756;9.226;2023-08-06T02:01:16;4.83;;;4.43;;
18425;SDS011;9340;48.756;9.226;2023-08-06T02:03:42;4.93;;;4.53;;
18425;SDS011;9340;48.756;9.226;2023-08-06T02:06:09;4.57;;;4.17;;
18425;SDS011;9340;48.756;9.226;2023-08-06T02:08:36;5.50;;;4.97;;
18425;SDS011;9340;48.756;9.226;2023-08-06T02:11:04;5.67;;;5.17;;
18425;SDS011;9340;48.756;9.226;2023-08-06T02:13:31;5.30;;;4.83;;
18425;SDS011;9340;48.756;9.226;2023-08-06T02:15:58;4.80;;;4.40;;
18425;SDS011;9340;48.756;9.226;2023-08-06T02:18:25;5.23;;;4.83;;
18425;SDS011;9340;48.756;9.226;2023-08-06T02:20:55;5.37;;;4.87;;
18425;SDS011;9340;48.756;9.226;2023-08-06T02:23:22;5.83;;;5.33;;
18425;SDS011;9340;48.756;9.226;2023-08-06T02:25:56;5.67;;;5.17;;
18425;SDS011;9340;48.756;9.226;2023-08-06T02:28:24;6.20;;;5.60;;
18425;SDS011;9340;48.756;9.226;2023-08-06T02:30:51;5.57;;;5.10;;
18425;SDS011;9340;48.756;9.226;2023-08-06T02:33:18;6.10;;;5.60;;
18425;SDS011;9340;48.756;9.226;2023-08-06T02:35:44;6.43;;;5.93;;
18425;SDS011;9340;48.756;9.226;2023-08-06T02:38:11;6.30;;;5.90;;
18425;SDS011;9340;48.756;9.226;2023-08-06T02:40:42;6.03;;;5.57;;
18425;SDS011;9340;48.756;9.226;2023-08-06T02:43:09;5.50;;;5.07;;
18425;SDS011;9340;48.756;9.226;2023-08-06T02:45:37;6.53;;;5.93;;
18425;SDS011;9340;48.756;9.226;2023-08-06T02:48:04;5.63;;;5.23;;
18425;SDS011;9340;48.756;9.226;2023-08-06T02:50:31;6.97;;;6.37;;
18425;SDS011;9340;48.756;9.226;2023-08-06T02:53:03;6.03;;;5.00;;
18425;SDS011;9340;48.756;9.226;2023-08-06T02:55:29;4.50;;;4.10;;
18425;SDS011;9340;48.756;9.226;2023-08-06T02:57:56;5.70;;;5.20;;
18425;SDS011;9340;48.756;9.226;2023-08-06T03:00:23;5.77;;;5.27;;
18425;SDS011;9340;48.756;9.226;2023-08-06T03:02:51;4.73;;;4.20;;
18425;SDS011;9340;48.756;9.226;2023-08-06T03:05:17;5.70;;;5.23;;
18425;SDS011;9340;48.756;9.226;2023-08-06T03:07:44;5.57;;;5.17;;
18425;SDS011;9340;48.756;9.226;2023-08-06T03:10:12;5.30;;;4.80;;
18425;SDS011;9340;48.756;9.226;2023-08-06T03:12:39;4.50;;;4.00;;
18425;SDS011;9340;48.756;9.226;2023-08-06T03:15:05;4.37;;;4.00;;
18425;SDS011;9340;48.756;9.226;2023-08-06T03:17:33;4.93;;;4.53;;
18425;SDS011;9340;48.756;9.226;2023-08-06T03:20:01;5.70;;;5.20;;
18425;SDS011;9340;48.756;9.226;2023-08-06T03:22:27;5.60;;;5.20;;
18425;SDS011;9340;48.756;9.226;2023-08-06T03:24:54;5.00;;;4.50;;
18425;SDS011;9340;48.756;9.226;2023-08-06T03:27:21;4.87;;;4.47;;
18425;SDS011;9340;48.756;9.226;2023-08-06T03:29:48;5.63;;;3.83;;
18425;SDS011;9340;48.756;9.226;2023-08-06T03:32:15;4.47;;;4.07;;
18425;SDS011;9340;48.756;9.226;2023-08-06T03:34:42;4.40;;;4.10;;
18425;SDS011;9340;48.756;9.226;2023-08-06T03:37:10;3.63;;;3.33;;
18425;SDS011;9340;48.756;9.226;2023-08-06T03:39:37;4.43;;;4.03;;
18425;SDS011;9340;48.756;9.226;2023-08-06T03:42:04;5.03;;;4.57;;
18425;SDS011;9340;48.756;9.226;2023-08-06T03:44:31;3.83;;;3.53;;
18425;SDS011;9340;48.756;9.226;2023-08-06T03:46:57;5.27;;;4.63;;
18425;SDS011;9340;48.756;9.226;2023-08-06T03:49:24;4.57;;;3.73;;
18425;SDS011;9340;48.756;9.226;2023-08-06T03:51:51;4.83;;;4.33;;
18425;SDS011;9340;48.756;9.226;2023-08-06T03:54:19;4.20;;;3.67;;
18425;SDS011;9340;48.756;9.226;2023-08-06T03:56:45;4.30;;;3.90;;
18425;SDS011;9340;48.756;9.226;2023-08-06T03:59:12;4.37;;;3.97;;
18425;SDS011;9340;48.756;9.226;2023-08-06T04:01:38;5.87;;;4.33;;
18425;SDS011;9340;48.756;9.226;2023-08-06T04:04:05;4.40;;;4.00;;
18425;SDS011;9340;48.756;9.226;2023-08-06T04:06:32;3.83;;;3.53;;
18425;SDS011;9340;48.756;9.226;2023-08-06T04:08:58;4.80;;;3.90;;
18425;SDS011;9340;48.756;9.226;2023-08-06T04:11:26;4.50;;;4.00;;
18425;SDS011;9340;48.756;9.226;2023-08-06T04:13:53;5.53;;;3.93;;
18425;SDS011;9340;48.756;9.226;2023-08-06T04:16:20;4.30;;;3.77;;
18425;SDS011;9340;48.756;9.226;2023-08-06T04:18:47;3.47;;;3.17;;
18425;SDS011;9340;48.756;9.226;2023-08-06T04:21:13;4.30;;;3.90;;
18425;SDS011;9340;48.756;9.226;2023-08-06T04:23:40;5.07;;;3.80;;
18425;SDS011;9340;48.756;9.226;2023-08-06T04:26:07;3.73;;;3.33;;
18425;SDS011;9340;48.756;9.226;2023-08-06T04:28:35;3.97;;;3.63;;
18425;SDS011;9340;48.756;9.226;2023-08-06T04:31:01;4.10;;;3.80;;
18425;SDS011;9340;48.756;9.226;2023-08-06T04:33:28;4.00;;;3.70;;
18425;SDS011;9340;48.756;9.226;2023-08-06T04:35:55;4.20;;;3.80;;
18425;SDS011;9340;48.756;9.226;2023-08-06T04:38:23;4.00;;;3.70;;
18425;SDS011;9340;48.756;9.226;2023-08-06T04:40:49;4.37;;;3.27;;
18425;SDS011;9340;48.756;9.226;2023-08-06T04:43:16;4.37;;;3.30;;
18425;SDS011;9340;48.756;9.226;2023-08-06T04:45:46;3.70;;;3.30;;
18425;SDS011;9340;48.756;9.226;2023-08-06T04:48:13;3.53;;;3.23;;
18425;SDS011;9340;48.756;9.226;2023-08-06T04:50:43;4.07;;;3.20;;
18425;SDS011;9340;48.756;9.226;2023-08-06T04:53:10;3.17;;;2.87;;
18425;SDS011;9340;48.756;9.226;2023-08-06T04:55:37;5.10;;;2.73;;
18425;SDS011;9340;48.756;9.226;2023-08-06T04:58:03;3.03;;;2.70;;
18425;SDS011;9340;48.756;9.226;2023-08-06T05:00:30;6.20;;;2.90;;
18425;SDS011;9340;48.756;9.226;2023-08-06T05:02:59;3.53;;;3.23;;
18425;SDS011;9340;48.756;9.226;2023-08-06T05:05:26;3.00;;;2.63;;
18425;SDS011;9340;48.756;9.226;2023-08-06T05:07:53;3.13;;;2.50;;
18425;SDS011;9340;48.756;9.226;2023-08-06T05:10:21;2.60;;;2.40;;
18425;SDS011;9340;48.756;9.226;2023-08-06T05:12:47;3.23;;;2.97;;
18425;SDS011;9340;48.756;9.226;2023-08-06T05:15:14;2.53;;;2.33;;
18425;SDS011;9340;48.756;9.226;2023-08-06T05:17:41;2.30;;;2.10;;
18425;SDS011;9340;48.756;9.226;2023-08-06T05:20:10;2.77;;;1.90;;
18425;SDS011;9340;48.756;9.226;2023-08-06T05:22:37;3.03;;;2.30;;
18425;SDS011;9340;48.756;9.226;2023-08-06T05:25:04;2.60;;;2.30;;
18425;SDS011;9340;48.756;9.226;2023-08-06T05:27:31;2.83;;;2.10;;
18425;SDS011;9340;48.756;9.226;2023-08-06T05:29:58;2.43;;;2.23;;
18425;SDS011;9340;48.756;9.226;2023-08-06T05:32:25;2.17;;;1.97;;
18425;SDS011;9340;48.756;9.226;2023-08-06T05:34:51;3.10;;;2.10;;
18425;SDS011;9340;48.756;9.226;2023-08-06T05:37:19;2.07;;;1.97;;
18425;SDS011;9340;48.756;9.226;2023-08-06T05:39:46;2.67;;;2.20;;
18425;SDS011;9340;48.756;9.226;2023-08-06T05:42:13;2.43;;;1.50;;
18425;SDS011;9340;48.756;9.226;2023-08-06T05:44:40;1.90;;;1.67;;
18425;SDS011;9340;48.756;9.226;2023-08-06T05:47:06;2.70;;;1.80;;
18425;SDS011;9340;48.756;9.226;2023-08-06T05:49:33;2.50;;;1.53;;
18425;SDS011;9340;48.756;9.226;2023-08-06T05:52:00;3.55;;;1.58;;
18425;SDS011;9340;48.756;9.226;2023-08-06T05:54:29;3.08;;;1.48;;
18425;SDS011;9340;48.756;9.226;2023-08-06T05:56:55;2.20;;;1.40;;
18425;SDS011;9340;48.756;9.226;2023-08-06T05:59:22;4.40;;;1.70;;
18425;SDS011;9340;48.756;9.226;2023-08-06T06:01:49;1.40;;;1.20;;
18425;SDS011;9340;48.756;9.226;2023-08-06T06:04:15;2.75;;;1.70;;
18425;SDS011;9340;48.756;9.226;2023-08-06T06:06:42;2.53;;;1.52;;
18425;SDS011;9340;48.756;9.226;2023-08-06T06:09:09;1.90;;;1.30;;
18425;SDS011;9340;48.756;9.226;2023-08-06T06:11:37;2.88;;;1.30;;
18425;SDS011;9340;48.756;9.226;2023-08-06T06:14:04;2.25;;;1.35;;
18425;SDS011;9340;48.756;9.226;2023-08-06T06:16:31;2.33;;;1.70;;
18425;SDS011;9340;48.756;9.226;2023-08-06T06:18:57;1.42;;;1.30;;
18425;SDS011;9340;48.756;9.226;2023-08-06T06:21:24;1.73;;;1.30;;
18425;SDS011;9340;48.756;9.226;2023-08-06T06:23:51;2.13;;;1.50;;
18425;SDS011;9340;48.756;9.226;2023-08-06T06:26:17;3.17;;;1.30;;
18425;SDS011;9340;48.756;9.226;2023-08-06T06:28:45;1.67;;;1.13;;
18425;SDS011;9340;48.756;9.226;2023-08-06T06:31:12;1.65;;;1.20;;
18425;SDS011;9340;48.756;9.226;2023-08-06T06:33:39;1.70;;;1.05;;
18425;SDS011;9340;48.756;9.226;2023-08-06T06:36:05;2.13;;;1.45;;
18425;SDS011;9340;48.756;9.226;2023-08-06T06:38:33;1.73;;;1.40;;
18425;SDS011;9340;48.756;9.226;2023-08-06T06:41:00;2.10;;;1.45;;
18425;SDS011;9340;48.756;9.226;2023-08-06T06:43:28;1.38;;;1.27;;
18425;SDS011;9340;48.756;9.226;2023-08-06T06:45:57;2.85;;;1.10;;
18425;SDS011;9340;48.756;9.226;2023-08-06T06:48:24;1.40;;;1.20;;
18425;SDS011;9340;48.756;9.226;2023-08-06T06:50:51;1.80;;;1.42;;
18425;SDS011;9340;48.756;9.226;2023-08-06T06:53:18;2.15;;;1.50;;
18425;SDS011;9340;48.756;9.226;2023-08-06T06:55:44;2.03;;;1.38;;
18425;SDS011;9340;48.756;9.226;2023-08-06T06:58:14;2.15;;;1.15;;
18425;SDS011;9340;48.756;9.226;2023-08-06T07:00:41;1.70;;;1.30;;
18425;SDS011;9340;48.756;9.226;2023-08-06T07:03:09;2.28;;;1.20;;
18425;SDS011;9340;48.756;9.226;2023-08-06T07:05:35;2.78;;;1.30;;
18425;SDS011;9340;48.756;9.226;2023-08-06T07:08:02;1.23;;;1.05;;
18425;SDS011;9340;48.756;9.226;2023-08-06T07:10:29;1.45;;;1.20;;
18425;SDS011;9340;48.756;9.226;2023-08-06T07:12:55;1.73;;;1.20;;
18425;SDS011;9340;48.756;9.226;2023-08-06T07:15:22;1.85;;;1.45;;
18425;SDS011;9340;48.756;9.226;2023-08-06T07:17:49;2.30;;;1.20;;
18425;SDS011;9340;48.756;9.226;2023-08-06T07:20:17;1.60;;;1.08;;
18425;SDS011;9340;48.756;9.226;2023-08-06T07:22:43;2.10;;;1.42;;
18425;SDS011;9340;48.756;9.226;2023-08-06T07:25:10;1.92;;;1.20;;
18425;SDS011;9340;48.756;9.226;2023-08-06T07:27:37;2.00;;;1.20;;
18425;SDS011;9340;48.756;9.226;2023-08-06T07:30:04;1.20;;;1.10;;
18425;SDS011;9340;48.756;9.226;2023-08-06T07:32:32;1.20;;;0.90;;
18425;SDS011;9340;48.756;9.226;2023-08-06T07:34:59;1.50;;;1.15;;
18425;SDS011;9340;48.756;9.226;2023-08-06T07:37:29;1.40;;;1.10;;
18425;SDS011;9340;48.756;9.226;2023-08-06T07:39:55;1.63;;;1.02;;
18425;SDS011;9340;48.756;9.226;2023-08-06T07:42:22;1.52;;;1.10;;
18425;SDS011;9340;48.756;9.226;2023-08-06T07:44:51;1.00;;;0.93;;
18425;SDS011;9340;48.756;9.226;2023-08-06T07:47:18;0.85;;;0.85;;
18425;SDS011;9340;48.756;9.226;2023-08-06T07:49:45;1.08;;;1.00;;
18425;SDS011;9340;48.756;9.226;2023-08-06T07:52:12;0.73;;;0.63;;
18425;SDS011;9340;48.756;9.226;2023-08-06T07:54:41;0.95;;;0.90;;
18425;SDS011;9340;48.756;9.226;2023-08-06T07:57:08;2.33;;;0.90;;
18425;SDS011;9340;48.756;9.226;2023-08-06T07:59:35;0.75;;;0.75;;
18425;SDS011;9340;48.756;9.226;2023-08-06T08:02:02;0.90;;;0.90;;
18425;SDS011;9340;48.756;9.226;2023-08-06T08:04:30;0.73;;;0.60;;
18425;SDS011;9340;48.756;9.226;2023-08-06T08:06:57;0.60;;;0.60;;
18425;SDS011;9340;48.756;9.226;2023-08-06T08:09:24;0.50;;;0.50;;
18425;SDS011;9340;48.756;9.226;2023-08-06T08:11:52;0.70;;;0.70;;
18425;SDS011;9340;48.756;9.226;2023-08-06T08:14:19;0.77;;;0.70;;
18425;SDS011;9340;48.756;9.226;2023-08-06T08:16:45;0.50;;;0.50;;
18425;SDS011;9340;48.756;9.226;2023-08-06T08:19:12;0.52;;;0.52;;
18425;SDS011;9340;48.756;9.226;2023-08-06T08:21:39;0.57;;;0.57;;
18425;SDS011;9340;48.756;9.226;2023-08-06T08:24:05;0.43;;;0.43;;
18425;SDS011;9340;48.756;9.226;2023-08-06T08:26:32;0.52;;;0.52;;
18425;SDS011;9340;48.756;9.226;2023-08-06T08:29:00;0.30;;;0.30;;
18425;SDS011;9340;48.756;9.226;2023-08-06T08:31:27;0.50;;;0.50;;
18425;SDS011;9340;48.756;9.226;2023-08-06T08:33:54;0.65;;;0.60;;
18425;SDS011;9340;48.756;9.226;2023-08-06T08:36:21;0.50;;;0.50;;
18425;SDS011;9340;48.756;9.226;2023-08-06T08:38:47;0.60;;;0.60;;
18425;SDS011;9340;48.756;9.226;2023-08-06T08:41:18;0.70;;;0.70;;
18425;SDS011;9340;48.756;9.226;2023-08-06T08:43:46;0.50;;;0.50;;
18425;SDS011;9340;48.756;9.226;2023-08-06T08:46:16;0.43;;;0.43;;
18425;SDS011;9340;48.756;9.226;2023-08-06T08:48:44;0.60;;;0.60;;
18425;SDS011;9340;48.756;9.226;2023-08-06T08:51:11;0.70;;;0.57;;
18425;SDS011;9340;48.756;9.226;2023-08-06T08:53:39;1.00;;;0.55;;
18425;SDS011;9340;48.756;9.226;2023-08-06T08:56:07;0.50;;;0.50;;
18425;SDS011;9340;48.756;9.226;2023-08-06T08:58:35;0.60;;;0.60;;
18425;SDS011;9340;48.756;9.226;2023-08-06T09:01:02;1.08;;;0.70;;
18425;SDS011;9340;48.756;9.226;2023-08-06T09:03:30;0.50;;;0.50;;
18425;SDS011;9340;48.756;9.226;2023-08-06T09:05:57;0.50;;;0.50;;
18425;SDS011;9340;48.756;9.226;2023-08-06T09:08:27;0.47;;;0.47;;
18425;SDS011;9340;48.756;9.226;2023-08-06T09:10:57;0.50;;;0.50;;
18425;SDS011;9340;48.756;9.226;2023-08-06T09:13:25;0.40;;;0.40;;
18425;SDS011;9340;48.756;9.226;2023-08-06T09:15:52;0.57;;;0.57;;
18425;SDS011;9340;48.756;9.226;2023-08-06T09:18:24;0.50;;;0.50;;
18425;SDS011;9340;48.756;9.226;2023-08-06T09:20:54;0.50;;;0.50;;
18425;SDS011;9340;48.756;9.226;2023-08-06T09:23:20;0.63;;;0.63;;
18425;SDS011;9340;48.756;9.226;2023-08-06T09:25:55;0.60;;;0.60;;
18425;SDS011;9340;48.756;9.226;2023-08-06T09:28:22;0.60;;;0.60;;
18425;SDS011;9340;48.756;9.226;2023-08-06T09:30:49;0.50;;;0.50;;
18425;SDS011;9340;48.756;9.226;2023-08-06T09:33:20;0.50;;;0.50;;
18425;SDS011;9340;48.756;9.226;2023-08-06T09:35:49;0.50;;;0.50;;
18425;SDS011;9340;48.756;9.226;2023-08-06T09:38:17;0.57;;;0.57;;
18425;SDS011;9340;48.756;9.226;2023-08-06T09:40:43;0.85;;;0.57;;
18425;SDS011;9340;48.756;9.226;2023-08-06T09:43:10;0.57;;;0.57;;
18425;SDS011;9340;48.756;9.226;2023-08-06T09:45:38;0.65;;;0.65;;
18425;SDS011;9340;48.756;9.226;2023-08-06T09:48:05;0.60;;;0.60;;
18425;SDS011;9340;48.756;9.226;2023-08-06T09:50:33;0.52;;;0.52;;
18425;SDS011;9340;48.756;9.226;2023-08-06T09:53:01;0.60;;;0.60;;
18425;SDS011;9340;48.756;9.226;2023-08-06T09:55:30;0.45;;;0.45;;
18425;SDS011;9340;48.756;9.226;2023-08-06T09:57:58;0.50;;;0.50;;
18425;SDS011;9340;48.756;9.226;2023-08-06T10:00:25;0.45;;;0.45;;
18425;SDS011;9340;48.756;9.226;2023-08-06T10:02:53;0.60;;;0.60;;
18425;SDS011;9340;48.756;9.226;2023-08-06T10:05:21;0.70;;;0.70;;
18425;SDS011;9340;48.756;9.226;2023-08-06T10:07:48;0.60;;;0.60;;
18425;SDS011;9340;48.756;9.226;2023-08-06T10:10:16;0.50;;;0.50;;
18425;SDS011;9340;48.756;9.226;2023-08-06T10:12:46;0.70;;;0.65;;
18425;SDS011;9340;48.756;9.226;2023-08-06T10:15:15;0.65;;;0.60;;
18425;SDS011;9340;48.756;9.226;2023-08-06T10:17:43;0.50;;;0.50;;
18425;SDS011;9340;48.756;9.226;2023-08-06T10:20:13;0.50;;;0.50;;
18425;SDS011;9340;48.756;9.226;2023-08-06T10:22:42;0.60;;;0.60;;
18425;SDS011;9340;48.756;9.226;2023-08-06T10:25:10;0.60;;;0.60;;
18425;SDS011;9340;48.756;9.226;2023-08-06T10:27:39;0.55;;;0.55;;
18425;SDS011;9340;48.756;9.226;2023-08-06T10:30:24;0.70;;;0.70;;
18425;SDS011;9340;48.756;9.226;2023-08-06T10:32:52;0.60;;;0.60;;
18425;SDS011;9340;48.756;9.226;2023-08-06T10:35:28;0.82;;;0.63;;
18425;SDS011;9340;48.756;9.226;2023-08-06T10:37:58;0.52;;;0.52;;
18425;SDS011;9340;48.756;9.226;2023-08-06T10:40:26;2.70;;;0.60;;
18425;SDS011;9340;48.756;9.226;2023-08-06T10:42:54;0.55;;;0.55;;
18425;SDS011;9340;48.756;9.226;2023-08-06T10:45:21;0.50;;;0.50;;
18425;SDS011;9340;48.756;9.226;2023-08-06T10:47:54;0.43;;;0.43;;
18425;SDS011;9340;48.756;9.226;2023-08-06T10:50:22;0.60;;;0.60;;
18425;SDS011;9340;48.756;9.226;2023-08-06T10:52:49;0.50;;;0.50;;
18425;SDS011;9340;48.756;9.226;2023-08-06T10:55:23;0.60;;;0.60;;
18425;SDS011;9340;48.756;9.226;2023-08-06T10:57:50;0.60;;;0.60;;
18425;SDS011;9340;48.756;9.226;2023-08-06T11:00:18;0.52;;;0.52;;
18425;SDS011;9340;48.756;9.226;2023-08-06T11:02:46;0.50;;;0.50;;
18425;SDS011;9340;48.756;9.226;2023-08-06T11:05:14;0.85;;;0.75;;
18425;SDS011;9340;48.756;9.226;2023-08-06T11:07:41;1.98;;;0.73;;
18425;SDS011;9340;48.756;9.226;2023-08-06T11:10:09;0.60;;;0.60;;
18425;SDS011;9340;48.756;9.226;2023-08-06T11:12:36;0.98;;;0.80;;
18425;SDS011;9340;48.756;9.226;2023-08-06T11:15:04;0.60;;;0.60;;
18425;SDS011;9340;48.756;9.226;2023-08-06T11:17:33;0.60;;;0.60;;
18425;SDS011;9340;48.756;9.226;2023-08-06T11:20:01;1.10;;;0.70;;
18425;SDS011;9340;48.756;9.226;2023-08-06T11:22:29;0.70;;;0.70;;
18425;SDS011;9340;48.756;9.226;2023-08-06T11:24:56;0.70;;;0.70;;
18425;SDS011;9340;48.756;9.226;2023-08-06T11:27:26;0.80;;;0.80;;
18425;SDS011;9340;48.756;9.226;2023-08-06T11:29:53;0.68;;;0.60;;
18425;SDS011;9340;48.756;9.226;2023-08-06T11:32:20;0.80;;;0.80;;
18425;SDS011;9340;48.756;9.226;2023-08-06T11:34:46;0.95;;;0.93;;
18425;SDS011;9340;48.756;9.226;2023-08-06T11:37:13;1.40;;;0.80;;
18425;SDS011;9340;48.756;9.226;2023-08-06T11:39:46;0.60;;;0.60;;
18425;SDS011;9340;48.756;9.226;2023-08-06T11:42:14;0.80;;;0.80;;
18425;SDS011;9340;48.756;9.226;2023-08-06T11:44:40;1.15;;;0.80;;
18425;SDS011;9340;48.756;9.226;2023-08-06T11:47:11;0.80;;;0.80;;
18425;SDS011;9340;48.756;9.226;2023-08-06T11:49:40;1.25;;;1.15;;
18425;SDS011;9340;48.756;9.226;2023-08-06T11:52:18;1.00;;;1.00;;
18425;SDS011;9340;48.756;9.226;2023-08-06T11:54:48;1.00;;;0.90;;
18425;SDS011;9340;48.756;9.226;2023-08-06T11:57:28;1.00;;;0.90;;
18425;SDS011;9340;48.756;9.226;2023-08-06T11:59:58;1.58;;;0.95;;
18425;SDS011;9340;48.756;9.226;2023-08-06T12:02:27;1.23;;;1.10;;
18425;SDS011;9340;48.756;9.226;2023-08-06T12:05:02;0.93;;;0.93;;
18425;SDS011;9340;48.756;9.226;2023-08-06T12:07:30;2.08;;;1.10;;
18425;SDS011;9340;48.756;9.226;2023-08-06T12:09:59;1.25;;;1.05;;
18425;SDS011;9340;48.756;9.226;2023-08-06T12:12:26;1.30;;;1.20;;
18425;SDS011;9340;48.756;9.226;2023-08-06T12:14:54;1.23;;;1.13;;
18425;SDS011;9340;48.756;9.226;2023-08-06T12:17:21;3.85;;;1.60;;
18425;SDS011;9340;48.756;9.226;2023-08-06T12:19:48;1.88;;;1.30;;
18425;SDS011;9340;48.756;9.226;2023-08-06T12:22:14;2.00;;;1.10;;
18425;SDS011;9340;48.756;9.226;2023-08-06T12:24:42;1.20;;;1.10;;
18425;SDS011;9340;48.756;9.226;2023-08-06T12:27:10;1.70;;;1.13;;
18425;SDS011;9340;48.756;9.226;2023-08-06T12:29:37;1.35;;;1.23;;
18425;SDS011;9340;48.756;9.226;2023-08-06T12:32:08;1.77;;;1.30;;
18425;SDS011;9340;48.756;9.226;2023-08-06T12:34:34;1.20;;;1.10;;
18425;SDS011;9340;48.756;9.226;2023-08-06T12:37:01;1.50;;;1.20;;
18425;SDS011;9340;48.756;9.226;2023-08-06T12:39:28;1.45;;;1.35;;
18425;SDS011;9340;48.756;9.226;2023-08-06T12:41:56;1.45;;;1.25;;
18425;SDS011;9340;48.756;9.226;2023-08-06T12:44:24;1.50;;;1.40;;
18425;SDS011;9340;48.756;9.226;2023-08-06T12:46:51;3.42;;;1.40;;
18425;SDS011;9340;48.756;9.226;2023-08-06T12:49:18;1.40;;;1.30;;
18425;SDS011;9340;48.756;9.226;2023-08-06T12:51:46;1.40;;;1.20;;
18425;SDS011;9340;48.756;9.226;2023-08-06T12:54:12;1.35;;;1.15;;
18425;SDS011;9340;48.756;9.226;2023-08-06T12:56:39;1.20;;;1.10;;
18425;SDS011;9340;48.756;9.226;2023-08-06T12:59:06;1.45;;;1.10;;
18425;SDS011;9340;48.756;9.226;2023-08-06T13:01:34;1.20;;;1.10;;
18425;SDS011;9340;48.756;9.226;2023-08-06T13:04:00;0.98;;;0.95;;
18425;SDS011;9340;48.756;9.226;2023-08-06T13:06:27;1.38;;;1.27;;
18425;SDS011;9340;48.756;9.226;2023-08-06T13:08:53;2.92;;;1.15;;
18425;SDS011;9340;48.756;9.226;2023-08-06T13:11:20;1.30;;;1.20;;
18425;SDS011;9340;48.756;9.226;2023-08-06T13:13:47;1.52;;;1.10;;
18425;SDS011;9340;48.756;9.226;2023-08-06T13:16:13;1.13;;;1.10;;
18425;SDS011;9340;48.756;9.226;2023-08-06T13:18:41;1.48;;;1.20;;
18425;SDS011;9340;48.756;9.226;2023-08-06T13:21:08;2.58;;;1.30;;
18425;SDS011;9340;48.756;9.226;2023-08-06T13:23:35;2.17;;;1.40;;
18425;SDS011;9340;48.756;9.226;2023-08-06T13:26:02;1.65;;;1.20;;
18425;SDS011;9340;48.756;9.226;2023-08-06T13:28:28;3.50;;;1.50;;
18425;SDS011;9340;48.756;9.226;2023-08-06T13:30:55;2.67;;;1.33;;
18425;SDS011;9340;48.756;9.226;2023-08-06T13:33:22;1.40;;;1.30;;
18425;SDS011;9340;48.756;9.226;2023-08-06T13:35:50;1.95;;;1.17;;
18425;SDS011;9340;48.756;9.226;2023-08-06T13:38:16;2.67;;;1.17;;
18425;SDS011;9340;48.756;9.226;2023-08-06T13:40:43;1.70;;;1.10;;
18425;SDS011;9340;48.756;9.226;2023-08-06T13:43:11;1.67;;;1.10;;
18425;SDS011;9340;48.756;9.226;2023-08-06T13:45:38;1.08;;;1.00;;
18425;SDS011;9340;48.756;9.226;2023-08-06T13:48:04;1.88;;;1.00;;
18425;SDS011;9340;48.756;9.226;2023-08-06T13:50:31;2.25;;;1.08;;
18425;SDS011;9340;48.756;9.226;2023-08-06T13:52:59;1.75;;;1.65;;
18425;SDS011;9340;48.756;9.226;2023-08-06T13:55:27;1.60;;;1.15;;
18425;SDS011;9340;48.756;9.226;2023-08-06T13:57:53;1.40;;;1.00;;
18425;SDS011;9340;48.756;9.226;2023-08-06T14:00:20;0.80;;;0.80;;
18425;SDS011;9340;48.756;9.226;2023-08-06T14:02:47;0.90;;;0.90;;
18425;SDS011;9340;48.756;9.226;2023-08-06T14:05:13;1.13;;;1.00;;
18425;SDS011;9340;48.756;9.226;2023-08-06T14:07:40;1.73;;;0.90;;
18425;SDS011;9340;48.756;9.226;2023-08-06T14:10:08;0.93;;;0.90;;
18425;SDS011;9340;48.756;9.226;2023-08-06T14:12:35;0.95;;;0.90;;
18425;SDS011;9340;48.756;9.226;2023-08-06T14:15:02;1.88;;;0.90;;
18425;SDS011;9340;48.756;9.226;2023-08-06T14:17:29;2.60;;;1.05;;
18425;SDS011;9340;48.756;9.226;2023-08-06T14:19:56;1.45;;;1.05;;
18425;SDS011;9340;48.756;9.226;2023-08-06T14:22:22;1.65;;;0.98;;
18425;SDS011;9340;48.756;9.226;2023-08-06T14:24:49;1.25;;;1.15;;
18425;SDS011;9340;48.756;9.226;2023-08-06T14:27:17;1.73;;;1.00;;
18425;SDS011;9340;48.756;9.226;2023-08-06T14:29:44;0.98;;;0.88;;
18425;SDS011;9340;48.756;9.226;2023-08-06T14:32:10;1.92;;;1.10;;
18425;SDS011;9340;48.756;9.226;2023-08-06T14:34:37;1.27;;;1.00;;
18425;SDS011;9340;48.756;9.226;2023-08-06T14:37:04;2.08;;;1.13;;
18425;SDS011;9340;48.756;9.226;2023-08-06T14:39:31;1.65;;;0.90;;
18425;SDS011;9340;48.756;9.226;2023-08-06T14:41:57;1.52;;;1.00;;
18425;SDS011;9340;48.756;9.226;2023-08-06T14:44:25;1.02;;;0.93;;
18425;SDS011;9340;48.756;9.226;2023-08-06T14:46:52;1.23;;;1.13;;
18425;SDS011;9340;48.756;9.226;2023-08-06T14:49:19;2.65;;;1.33;;
18425;SDS011;9340;48.756;9.226;2023-08-06T14:51:45;1.25;;;0.90;;
18425;SDS011;9340;48.756;9.226;2023-08-06T14:54:12;0.85;;;0.82;;
18425;SDS011;9340;48.756;9.226;2023-08-06T14:56:38;1.85;;;1.00;;
18425;SDS011;9340;48.756;9.226;2023-08-06T14:59:05;1.20;;;1.08;;
18425;SDS011;9340;48.756;9.226;2023-08-06T15:01:33;1.35;;;0.80;;